createdAt,value
2019-01-21T00:00:51.826Z,51.17
2019-01-21T00:03:19.725Z,46.00
2019-01-21T00:05:48.240Z,47.33
2019-01-21T00:08:16.122Z,47.43
2019-01-21T00:10:44.348Z,40.63
2019-01-21T00:13:12.138Z,40.23
2019-01-21T00:15:39.734Z,45.63
2019-01-21T00:18:08.156Z,41.33
2019-01-21T00:20:39.614Z,40.30
2019-01-21T00:23:07.526Z,43.20
2019-01-21T00:25:35.666Z,41.00
2019-01-21T00:28:03.551Z,43.03
2019-01-21T00:30:31.876Z,35.90
2019-01-21T00:32:59.367Z,41.27
2019-01-21T00:35:27.235Z,39.20
2019-01-21T00:37:55.061Z,42.00
2019-01-21T00:40:22.568Z,38.83
2019-01-21T00:42:50.402Z,42.60
2019-01-21T00:45:18.321Z,36.17
2019-01-21T00:47:46.871Z,34.83
2019-01-21T00:50:14.364Z,39.07
2019-01-21T00:52:42.247Z,36.90
2019-01-21T00:55:10.270Z,35.63
2019-01-21T00:57:38.485Z,36.77
2019-01-21T01:00:09.374Z,35.93
2019-01-21T01:02:36.875Z,36.23
2019-01-21T01:05:06.108Z,38.40
2019-01-21T01:07:35.125Z,34.00
2019-01-21T01:10:03.344Z,36.70
2019-01-21T01:12:31.356Z,36.07
2019-01-21T01:14:59.031Z,40.17
2019-01-21T01:17:26.495Z,38.07
2019-01-21T01:19:54.642Z,36.50
2019-01-21T01:22:22.483Z,40.43
2019-01-21T01:24:50.910Z,38.80
2019-01-21T01:27:18.750Z,36.17
2019-01-21T01:29:46.636Z,39.77
2019-01-21T01:32:14.502Z,37.30
2019-01-21T01:34:42.010Z,39.00
2019-01-21T01:37:10.198Z,34.70
2019-01-21T01:39:38.111Z,42.30
2019-01-21T01:42:05.681Z,40.60
2019-01-21T01:44:34.212Z,38.93
2019-01-21T01:47:02.535Z,40.73
2019-01-21T01:49:30.396Z,44.53
2019-01-21T01:51:58.956Z,39.90
2019-01-21T01:54:27.201Z,39.53
2019-01-21T01:56:56.781Z,38.60
2019-01-21T01:59:24.912Z,39.50
2019-01-21T02:01:53.150Z,42.40
2019-01-21T02:04:21.301Z,40.80
2019-01-21T02:06:49.597Z,42.80
2019-01-21T02:09:17.369Z,43.50
2019-01-21T02:11:45.215Z,37.97
2019-01-21T02:14:12.987Z,42.63
2019-01-21T02:16:40.535Z,42.37
2019-01-21T02:19:08.637Z,40.13
2019-01-21T02:21:37.718Z,42.50
2019-01-21T02:24:07.975Z,40.70
2019-01-21T02:27:08.389Z,42.10
2019-01-21T02:29:55.069Z,39.97
2019-01-21T02:33:00.373Z,41.20
2019-01-21T02:36:18.841Z,43.03
2019-01-21T02:39:44.422Z,39.27
2019-01-21T02:42:40.529Z,41.80
2019-01-21T02:46:05.407Z,44.47
2019-01-21T02:49:10.036Z,42.50
2019-01-21T02:52:18.910Z,43.60
2019-01-21T02:55:12.435Z,41.53
2019-01-21T02:58:27.262Z,50.97
2019-01-21T03:01:14.459Z,50.10
2019-01-21T03:04:11.302Z,43.00
2019-01-21T03:07:12.075Z,42.53
2019-01-21T03:10:23.515Z,42.60
2019-01-21T03:13:18.352Z,42.20
2019-01-21T03:16:23.253Z,46.47
2019-01-21T03:19:28.188Z,41.60
2019-01-21T03:22:34.017Z,49.20
2019-01-21T03:25:33.560Z,48.23
2019-01-21T03:28:56.167Z,50.50
2019-01-21T03:32:18.009Z,47.47
2019-01-21T03:35:40.005Z,50.37
2019-01-21T03:38:20.499Z,47.90
2019-01-21T03:40:54.784Z,48.80
2019-01-21T03:44:20.906Z,41.30
2019-01-21T03:47:06.888Z,46.57
2019-01-21T03:50:25.733Z,47.43
2019-01-21T03:53:38.324Z,53.50
2019-01-21T03:56:11.629Z,47.17
2019-01-21T03:58:58.041Z,46.20
2019-01-21T04:01:49.957Z,46.60
2019-01-21T04:04:43.220Z,50.57
2019-01-21T04:07:38.069Z,51.97
2019-01-21T04:10:51.052Z,54.10
2019-01-21T04:13:36.987Z,48.67
2019-01-21T04:16:37.454Z,49.00
2019-01-21T04:19:46.767Z,44.63
2019-01-21T04:23:05.395Z,48.50
2019-01-21T04:25:48.279Z,43.83
2019-01-21T04:28:57.938Z,52.67
2019-01-21T04:31:45.070Z,50.90
2019-01-21T04:35:12.426Z,51.80
2019-01-21T04:38:28.174Z,47.23
2019-01-21T04:41:12.686Z,52.57
2019-01-21T04:44:34.803Z,54.77
2019-01-21T04:47:40.046Z,51.17
2019-01-21T04:50:46.156Z,57.20
2019-01-21T04:53:57.377Z,50.17
2019-01-21T04:56:53.367Z,52.60
2019-01-21T05:00:12.147Z,49.73
2019-01-21T05:03:08.255Z,50.63
2019-01-21T05:06:03.168Z,56.40
2019-01-21T05:09:14.579Z,52.70
2019-01-21T05:12:15.055Z,50.47
2019-01-21T05:15:11.620Z,56.47
2019-01-21T05:18:20.566Z,50.37
2019-01-21T05:21:34.515Z,54.97
2019-01-21T05:24:35.789Z,50.83
2019-01-21T05:27:54.427Z,51.37
2019-01-21T05:31:01.319Z,51.97
2019-01-21T05:34:13.984Z,55.03
2019-01-21T05:37:17.735Z,62.33
2019-01-21T05:40:18.669Z,51.03
2019-01-21T05:43:35.568Z,55.33
2019-01-21T05:46:47.747Z,52.80
2019-01-21T05:49:52.101Z,57.07
2019-01-21T05:53:09.736Z,57.03
2019-01-21T05:56:31.772Z,64.20
2019-01-21T05:59:47.288Z,53.10
2019-01-21T06:02:43.429Z,52.40
2019-01-21T06:05:25.800Z,49.17
2019-01-21T06:08:31.017Z,57.10
2019-01-21T06:11:29.336Z,52.90
2019-01-21T06:14:37.975Z,51.50
2019-01-21T06:17:21.027Z,59.23
2019-01-21T06:20:41.377Z,45.97
2019-01-21T06:24:06.154Z,51.80
2019-01-21T06:27:14.039Z,53.10
2019-01-21T06:30:14.811Z,61.00
2019-01-21T06:33:17.707Z,50.80
2019-01-21T06:36:33.581Z,60.80
2019-01-21T06:39:38.007Z,51.27
2019-01-21T06:42:54.555Z,58.97
2019-01-21T06:46:05.979Z,52.23
2019-01-21T06:49:15.701Z,52.60
2019-01-21T06:52:14.845Z,56.27
2019-01-21T06:55:38.167Z,52.90
2019-01-21T06:58:44.891Z,53.50
2019-01-21T07:01:41.157Z,61.93
2019-01-21T07:04:55.080Z,54.17
2019-01-21T07:07:55.443Z,59.23
2019-01-21T07:10:54.981Z,56.83
2019-01-21T07:14:03.493Z,62.40
2019-01-21T07:17:19.191Z,55.67
2019-01-21T07:20:47.292Z,50.97
2019-01-21T07:23:49.086Z,59.33
2019-01-21T07:27:14.208Z,59.77
2019-01-21T07:30:13.142Z,52.97
2019-01-21T07:33:18.750Z,55.87
2019-01-21T07:36:15.325Z,60.57
2019-01-21T07:39:24.460Z,59.33
2019-01-21T07:42:07.236Z,55.60
2019-01-21T07:45:24.514Z,54.33
2019-01-21T07:48:30.340Z,68.33
2019-01-21T07:51:27.425Z,63.00
2019-01-21T07:54:23.235Z,66.90
2019-01-21T07:57:45.180Z,65.60
2019-01-21T08:00:55.573Z,76.67
2019-01-21T08:03:56.082Z,66.17
2019-01-21T08:06:40.554Z,71.17
2019-01-21T08:09:40.067Z,54.93
2019-01-21T08:12:45.570Z,58.47
2019-01-21T08:15:41.802Z,54.13
2019-01-21T08:18:50.247Z,61.07
2019-01-21T08:21:38.877Z,61.23
2019-01-21T08:24:36.550Z,59.93
2019-01-21T08:27:38.129Z,59.47
2019-01-21T08:30:35.296Z,64.47
2019-01-21T08:33:44.335Z,55.80
2019-01-21T08:36:59.920Z,56.00
2019-01-21T08:40:09.071Z,59.13
2019-01-21T08:43:19.533Z,60.60
2019-01-21T08:46:28.666Z,59.60
2019-01-21T08:49:12.041Z,58.93
2019-01-21T08:52:24.246Z,66.53
2019-01-21T08:55:43.396Z,55.40
2019-01-21T08:58:48.862Z,65.87
2019-01-21T09:02:10.017Z,59.30
2019-01-21T09:05:04.422Z,67.20
2019-01-21T09:07:52.393Z,57.57
2019-01-21T09:10:45.185Z,61.70
2019-01-21T09:13:42.194Z,57.20
2019-01-21T09:16:47.723Z,55.53
2019-01-21T09:20:15.067Z,54.97
2019-01-21T09:23:14.593Z,61.00
2019-01-21T09:25:55.839Z,52.53
2019-01-21T09:28:37.592Z,52.23
2019-01-21T09:31:42.310Z,62.40
2019-01-21T09:34:47.404Z,61.27
2019-01-21T09:37:29.965Z,57.53
2019-01-21T09:40:36.864Z,64.10
2019-01-21T09:43:20.292Z,60.87
2019-01-21T09:46:20.570Z,51.17
2019-01-21T09:48:47.042Z,53.33
2019-01-21T09:51:15.274Z,68.00
2019-01-21T09:53:45.724Z,60.77
2019-01-21T09:56:13.555Z,53.00
2019-01-21T09:58:43.464Z,56.20
2019-01-21T10:01:11.162Z,56.33
2019-01-21T10:03:39.011Z,58.97
2019-01-21T10:06:07.999Z,53.43
2019-01-21T10:08:59.807Z,50.70
2019-01-21T10:12:01.731Z,59.07
2019-01-21T10:15:14.198Z,58.20
2019-01-21T10:18:40.176Z,57.40
2019-01-21T10:21:31.625Z,52.27
2019-01-21T10:24:33.992Z,49.87
2019-01-21T10:27:40.107Z,47.97
2019-01-21T10:30:33.984Z,47.83
2019-01-21T10:33:51.620Z,41.23
2019-01-21T10:36:56.406Z,45.63
2019-01-21T10:40:09.555Z,41.83
2019-01-21T10:43:34.377Z,42.27
2019-01-21T10:46:35.519Z,37.73
2019-01-21T10:49:57.460Z,42.80
2019-01-21T10:53:08.672Z,40.97
2019-01-21T10:56:19.730Z,41.17
2019-01-21T10:59:35.876Z,42.53
2019-01-21T11:02:41.159Z,38.67
2019-01-21T11:05:38.330Z,34.03
2019-01-21T11:08:48.480Z,38.27
2019-01-21T11:11:54.043Z,39.03
2019-01-21T11:14:47.002Z,34.23
2019-01-21T11:17:42.377Z,37.37
2019-01-21T11:20:44.754Z,39.30
2019-01-21T11:23:50.637Z,43.23
2019-01-21T11:26:41.549Z,38.40
2019-01-21T11:29:19.312Z,36.27
2019-01-21T11:32:20.864Z,42.43
2019-01-21T11:35:19.403Z,39.23
2019-01-21T11:38:30.840Z,34.57
2019-01-21T11:41:36.790Z,36.20
2019-01-21T11:44:34.427Z,34.27
2019-01-21T11:47:17.974Z,38.33
2019-01-21T11:50:23.744Z,35.37
2019-01-21T11:53:39.509Z,39.20
2019-01-21T11:56:26.371Z,32.17
2019-01-21T11:59:12.761Z,35.57
2019-01-21T12:02:23.549Z,33.13
2019-01-21T12:05:16.672Z,36.73
2019-01-21T12:08:22.090Z,37.53
2019-01-21T12:11:49.444Z,35.93
2019-01-21T12:14:55.793Z,38.50
2019-01-21T12:18:01.033Z,36.30
2019-01-21T12:21:31.579Z,36.13
2019-01-21T12:24:40.099Z,36.30
2019-01-21T12:27:20.362Z,34.13
2019-01-21T12:30:36.527Z,34.50
2019-01-21T12:33:36.459Z,30.37
2019-01-21T12:36:33.486Z,34.70
2019-01-21T12:39:39.642Z,34.03
2019-01-21T12:42:22.956Z,35.33
2019-01-21T12:45:20.037Z,35.50
2019-01-21T12:48:31.630Z,35.17
2019-01-21T12:51:33.138Z,36.83
2019-01-21T12:54:40.636Z,34.90
2019-01-21T12:58:11.443Z,28.47
2019-01-21T13:01:10.019Z,33.83
2019-01-21T13:04:08.605Z,32.53
2019-01-21T13:07:18.660Z,32.40
2019-01-21T13:10:38.522Z,34.30
2019-01-21T13:13:58.427Z,32.23
2019-01-21T13:16:49.899Z,31.27
2019-01-21T13:20:11.467Z,32.43
2019-01-21T13:23:35.360Z,31.70
2019-01-21T13:26:37.530Z,34.97
2019-01-21T13:29:48.798Z,31.95
2019-01-21T13:32:59.531Z,32.93
2019-01-21T13:36:09.586Z,33.63
2019-01-21T13:39:30.278Z,31.33
2019-01-21T13:42:18.823Z,33.23
2019-01-21T13:45:36.473Z,33.83
2019-01-21T13:48:32.476Z,40.87
2019-01-21T13:51:23.808Z,34.27
2019-01-21T13:54:34.982Z,35.80
2019-01-21T13:58:05.847Z,31.17
2019-01-21T14:01:22.675Z,35.83
2019-01-21T14:04:32.537Z,37.37
2019-01-21T14:07:28.233Z,33.13
2019-01-21T14:10:38.052Z,30.13
2019-01-21T14:13:48.893Z,33.93
2019-01-21T14:16:33.284Z,37.10
2019-01-21T14:19:37.468Z,36.80
2019-01-21T14:22:42.021Z,35.17
2019-01-21T14:26:04.824Z,34.27
2019-01-21T14:29:04.522Z,32.80
2019-01-21T14:32:15.585Z,34.13
2019-01-21T14:35:22.179Z,33.53
2019-01-21T14:38:10.613Z,36.13
2019-01-21T14:41:24.036Z,31.30
2019-01-21T14:44:39.617Z,42.43
2019-01-21T14:47:30.091Z,33.90
2019-01-21T14:50:36.289Z,41.47
2019-01-21T14:53:39.958Z,37.30
2019-01-21T14:56:18.251Z,37.33
2019-01-21T14:59:06.271Z,37.53
2019-01-21T15:02:12.944Z,39.27
2019-01-21T15:05:16.016Z,41.90
2019-01-21T15:07:57.611Z,45.40
2019-01-21T15:11:05.279Z,37.40
2019-01-21T15:14:12.345Z,43.47
2019-01-21T15:17:41.036Z,42.17
2019-01-21T15:20:36.165Z,36.93
2019-01-21T15:23:34.576Z,40.27
2019-01-21T15:26:43.094Z,37.73
2019-01-21T15:30:07.363Z,39.53
2019-01-21T15:33:24.386Z,42.73
2019-01-21T15:36:32.235Z,41.07
2019-01-21T15:39:35.380Z,42.57
2019-01-21T15:42:29.239Z,44.63
2019-01-21T15:45:34.251Z,44.00
2019-01-21T15:48:31.392Z,46.57
2019-01-21T15:51:53.692Z,46.30
2019-01-21T15:55:05.807Z,44.73
2019-01-21T15:58:19.317Z,47.13
2019-01-21T16:01:44.361Z,49.77
2019-01-21T16:04:59.894Z,51.17
2019-01-21T16:07:44.223Z,48.83
2019-01-21T16:10:42.093Z,50.57
2019-01-21T16:13:39.128Z,51.90
2019-01-21T16:16:51.278Z,51.00
2019-01-21T16:19:42.811Z,49.03
2019-01-21T16:22:47.126Z,52.17
2019-01-21T16:25:52.783Z,58.47
2019-01-21T16:28:47.927Z,52.60
2019-01-21T16:31:29.563Z,49.17
2019-01-21T16:34:30.153Z,62.87
2019-01-21T16:37:35.130Z,55.93
2019-01-21T16:40:50.593Z,47.27
2019-01-21T16:43:18.067Z,53.30
2019-01-21T16:45:46.304Z,56.40
2019-01-21T16:48:13.808Z,56.63
2019-01-21T16:50:42.091Z,50.20
2019-01-21T16:53:09.683Z,49.13
2019-01-21T16:55:37.731Z,53.80
2019-01-21T16:58:05.221Z,56.60
2019-01-21T17:00:33.444Z,63.57
2019-01-21T17:03:01.721Z,71.97
2019-01-21T17:05:29.912Z,68.13
2019-01-21T17:07:58.358Z,69.90
2019-01-21T17:10:27.117Z,65.53
2019-01-21T17:12:54.953Z,81.43
2019-01-21T17:15:22.806Z,69.03
2019-01-21T17:17:50.881Z,64.97
2019-01-21T17:20:20.045Z,73.77
2019-01-21T17:22:47.538Z,73.97
2019-01-21T17:25:16.960Z,72.63
2019-01-21T17:27:44.920Z,71.50
2019-01-21T17:30:14.305Z,68.27
2019-01-21T17:32:41.837Z,79.17
2019-01-21T17:35:10.198Z,69.47
2019-01-21T17:37:41.974Z,64.40
2019-01-21T17:40:11.464Z,81.37
2019-01-21T17:42:39.945Z,83.00
2019-01-21T17:45:11.379Z,70.57
2019-01-21T17:47:39.140Z,67.77
2019-01-21T17:50:08.818Z,70.17
2019-01-21T17:52:36.646Z,71.80
2019-01-21T17:55:04.653Z,64.53
2019-01-21T17:57:32.890Z,73.50
2019-01-21T18:00:00.758Z,82.70
2019-01-21T18:02:28.760Z,81.57
2019-01-21T18:07:21.445Z,75.87
2019-01-21T18:09:49.215Z,67.57
2019-01-21T18:12:16.688Z,71.80
2019-01-21T18:14:44.210Z,74.90
2019-01-21T18:17:12.034Z,83.27
2019-01-21T18:19:39.870Z,76.30
2019-01-21T18:22:07.390Z,78.43
2019-01-21T18:24:35.485Z,73.07
2019-01-21T18:27:03.372Z,88.47
2019-01-21T18:29:31.537Z,89.57
2019-01-21T18:31:59.296Z,91.37
2019-01-21T18:34:27.492Z,84.87
2019-01-21T18:36:55.295Z,94.77
2019-01-21T18:39:23.294Z,80.10
2019-01-21T18:41:50.879Z,85.60
2019-01-21T18:44:19.101Z,97.30
2019-01-21T18:46:46.842Z,90.80
2019-01-21T18:49:15.931Z,88.70
2019-01-21T18:51:46.822Z,82.63
2019-01-21T18:54:12.733Z,87.57
2019-01-21T18:56:40.207Z,86.20
2019-01-21T18:59:07.772Z,86.30
2019-01-21T19:01:35.252Z,86.93
2019-01-21T19:04:02.789Z,88.30
2019-01-21T19:06:30.861Z,86.50
2019-01-21T19:08:59.437Z,83.33
2019-01-21T19:11:28.729Z,78.73
2019-01-21T19:13:56.282Z,81.37
2019-01-21T19:16:23.780Z,73.57
2019-01-21T19:18:51.365Z,77.33
2019-01-21T19:21:19.720Z,66.37
2019-01-21T19:23:47.938Z,69.17
2019-01-21T19:26:16.161Z,71.33
2019-01-21T19:28:43.994Z,71.90
2019-01-21T19:31:12.534Z,73.40
2019-01-21T19:33:40.015Z,70.47
2019-01-21T19:36:08.047Z,87.40
2019-01-21T19:38:56.575Z,70.50
2019-01-21T19:41:24.107Z,70.63
2019-01-21T19:43:52.918Z,70.53
2019-01-21T19:46:20.959Z,71.93
2019-01-21T19:48:49.356Z,72.37
2019-01-21T19:51:17.460Z,74.03
2019-01-21T19:53:45.588Z,77.40
2019-01-21T19:56:13.487Z,74.37
2019-01-21T19:58:41.592Z,75.70
2019-01-21T20:01:09.616Z,63.97
2019-01-21T20:03:37.384Z,74.97
2019-01-21T20:06:05.320Z,77.07
2019-01-21T20:08:32.762Z,69.23
2019-01-21T20:11:00.793Z,80.80
2019-01-21T20:13:28.775Z,93.90
2019-01-21T20:15:56.335Z,95.10
2019-01-21T20:18:24.182Z,102.40
2019-01-21T20:20:52.600Z,91.60
2019-01-21T20:23:20.568Z,90.33
2019-01-21T20:25:48.043Z,100.13
2019-01-21T20:28:16.868Z,89.83
2019-01-21T20:30:44.426Z,94.07
2019-01-21T20:33:11.888Z,86.80
2019-01-21T20:35:39.513Z,101.80
2019-01-21T20:38:07.748Z,94.03
2019-01-21T20:40:35.754Z,96.33
2019-01-21T20:43:03.617Z,95.53
2019-01-21T20:45:31.430Z,94.30
2019-01-21T20:47:59.059Z,92.13
2019-01-21T20:50:28.450Z,81.83
2019-01-21T20:52:56.877Z,90.17
2019-01-21T20:55:24.631Z,82.27
2019-01-21T20:57:52.148Z,65.43
2019-01-21T21:00:22.084Z,71.30
2019-01-21T21:02:50.288Z,91.83
2019-01-21T21:05:17.863Z,92.10
2019-01-21T21:07:45.920Z,95.47
2019-01-21T21:10:13.593Z,81.60
2019-01-21T21:12:41.578Z,100.17
2019-01-21T21:15:15.698Z,88.77
2019-01-21T21:17:44.046Z,91.83
2019-01-21T21:20:12.152Z,89.67
2019-01-21T21:22:40.095Z,98.63
2019-01-21T21:25:09.410Z,90.00
2019-01-21T21:27:37.529Z,97.23
2019-01-21T21:30:08.687Z,93.23
2019-01-21T21:32:36.197Z,91.27
2019-01-21T21:35:04.077Z,78.20
2019-01-21T21:37:31.640Z,82.83
2019-01-21T21:40:00.215Z,87.07
2019-01-21T21:42:28.108Z,83.50
2019-01-21T21:44:56.039Z,77.07
2019-01-21T21:47:24.190Z,79.20
2019-01-21T21:49:51.982Z,82.60
2019-01-21T21:52:27.860Z,81.27
2019-01-21T21:54:56.274Z,79.47
2019-01-21T21:57:24.214Z,69.37
2019-01-21T21:59:52.114Z,73.87
2019-01-21T22:02:19.659Z,75.47
2019-01-21T22:04:47.524Z,75.40
2019-01-21T22:07:16.238Z,88.57
2019-01-21T22:09:44.182Z,78.20
2019-01-21T22:12:11.879Z,75.33
2019-01-21T22:14:39.428Z,79.27
2019-01-21T22:17:07.103Z,75.50
2019-01-21T22:19:35.600Z,72.50
2019-01-21T22:22:03.086Z,77.93
2019-01-21T22:24:31.262Z,86.93
2019-01-21T22:26:58.843Z,82.33
2019-01-21T22:29:27.079Z,95.53
2019-01-21T22:31:54.623Z,94.23
2019-01-21T22:34:22.881Z,96.17
2019-01-21T22:36:51.069Z,96.70
2019-01-21T22:39:18.870Z,92.80
2019-01-21T22:41:46.450Z,91.90
2019-01-21T22:44:20.347Z,97.07
2019-01-21T22:46:53.159Z,89.90
2019-01-21T22:49:21.206Z,89.03
2019-01-21T22:51:48.875Z,107.57
2019-01-21T22:54:16.725Z,105.87
2019-01-21T22:56:44.267Z,111.23
2019-01-21T22:59:12.957Z,100.20
2019-01-21T23:01:41.305Z,102.83
2019-01-21T23:04:09.021Z,105.43
2019-01-21T23:06:36.535Z,109.57
2019-01-21T23:09:07.440Z,99.00
2019-01-21T23:11:35.162Z,89.87
2019-01-21T23:14:03.529Z,88.60
2019-01-21T23:16:31.169Z,81.80
2019-01-21T23:19:00.886Z,78.37
2019-01-21T23:21:28.804Z,87.10
2019-01-21T23:23:56.352Z,91.53
2019-01-21T23:26:24.426Z,74.87
2019-01-21T23:28:52.255Z,79.57
2019-01-21T23:31:20.120Z,84.33
2019-01-21T23:33:47.643Z,89.00
2019-01-21T23:36:15.143Z,78.37
2019-01-21T23:38:43.071Z,89.77
2019-01-21T23:41:11.027Z,92.33
2019-01-21T23:43:39.090Z,90.70
2019-01-21T23:46:06.676Z,90.97
2019-01-21T23:48:35.046Z,96.83
2019-01-21T23:51:02.676Z,88.70
2019-01-21T23:53:31.121Z,87.40
2019-01-21T23:55:58.953Z,98.77
2019-01-21T23:58:26.418Z,95.40
